createdAt,value
2019-06-10T00:00:13.449Z,16.42
2019-06-10T00:01:08.463Z,16.31
2019-06-10T00:02:07.258Z,16.33
2019-06-10T00:03:07.238Z,16.33
2019-06-10T00:04:08.864Z,16.34
2019-06-10T00:05:07.279Z,16.38
2019-06-10T00:06:07.149Z,16.49
2019-06-10T00:07:07.488Z,16.53
2019-06-10T00:08:07.423Z,16.40
2019-06-10T00:09:08.158Z,16.38
2019-06-10T00:10:07.724Z,16.50
2019-06-10T00:11:07.962Z,16.59
2019-06-10T00:12:09.461Z,16.58
2019-06-10T00:13:08.639Z,16.56
2019-06-10T00:14:10.569Z,16.59
2019-06-10T00:15:10.698Z,16.62
2019-06-10T00:16:08.628Z,16.65
2019-06-10T00:17:10.930Z,16.55
2019-06-10T00:18:30.842Z,16.68
2019-06-10T00:19:11.929Z,16.70
2019-06-10T00:20:11.136Z,16.68
2019-06-10T00:21:11.165Z,16.50
2019-06-10T00:22:11.649Z,16.58
2019-06-10T00:23:12.307Z,16.52
2019-06-10T00:24:11.789Z,16.49
2019-06-10T00:25:12.007Z,16.49
2019-06-10T00:26:12.385Z,16.50
2019-06-10T00:27:11.756Z,16.49
2019-06-10T00:28:12.096Z,16.52
2019-06-10T00:29:11.913Z,16.56
2019-06-10T00:30:12.257Z,16.49
2019-06-10T00:31:11.499Z,16.48
2019-06-10T00:32:13.039Z,16.63
2019-06-10T00:33:12.694Z,16.56
2019-06-10T00:34:12.399Z,16.42
2019-06-10T00:35:12.299Z,16.50
2019-06-10T00:36:13.568Z,16.44
2019-06-10T00:37:14.722Z,16.35
2019-06-10T00:38:14.380Z,16.45
2019-06-10T00:39:13.478Z,16.48
2019-06-10T00:40:14.184Z,16.52
2019-06-10T00:41:14.028Z,16.56
2019-06-10T00:42:15.078Z,16.59
2019-06-10T00:43:13.589Z,16.67
2019-06-10T00:44:12.977Z,16.70
2019-06-10T00:45:17.672Z,16.71
2019-06-10T00:46:13.382Z,16.55
2019-06-10T00:47:15.065Z,16.56
2019-06-10T00:48:23.942Z,16.52
2019-06-10T00:49:14.690Z,16.58
2019-06-10T00:50:14.821Z,16.62
2019-06-10T00:51:13.895Z,16.67
2019-06-10T00:52:14.209Z,16.68
2019-06-10T00:53:14.644Z,16.81
2019-06-10T00:54:15.720Z,16.65
2019-06-10T00:55:14.498Z,16.68
2019-06-10T00:56:14.647Z,16.73
2019-06-10T00:57:14.796Z,16.71
2019-06-10T00:58:14.948Z,16.65
2019-06-10T00:59:15.482Z,16.60
2019-06-10T01:00:25.381Z,16.50
2019-06-10T01:01:15.400Z,16.50
2019-06-10T01:02:15.548Z,16.56
2019-06-10T01:03:15.702Z,16.53
2019-06-10T01:04:16.514Z,16.44
2019-06-10T01:05:16.002Z,16.59
2019-06-10T01:06:16.152Z,16.62
2019-06-10T01:07:16.301Z,16.58
2019-06-10T01:08:16.453Z,16.59
2019-06-10T01:09:16.605Z,16.53
2019-06-10T01:10:16.755Z,16.60
2019-06-10T01:11:21.254Z,16.52
2019-06-10T01:12:17.055Z,16.41
2019-06-10T01:13:17.206Z,16.38
2019-06-10T01:14:17.390Z,16.49
2019-06-10T01:15:17.542Z,16.35
2019-06-10T01:16:17.692Z,16.27
2019-06-10T01:17:17.842Z,16.34
2019-06-10T01:18:31.977Z,16.15
2019-06-10T01:19:18.143Z,16.09
2019-06-10T01:20:18.293Z,16.12
2019-06-10T01:21:18.443Z,16.03
2019-06-10T01:22:21.116Z,15.92
2019-06-10T01:23:18.744Z,16.01
2019-06-10T01:24:18.896Z,15.96
2019-06-10T01:25:19.048Z,15.93
2019-06-10T01:26:21.577Z,16.04
2019-06-10T01:27:21.171Z,16.11
2019-06-10T01:28:21.828Z,16.23
2019-06-10T01:29:21.021Z,16.23
2019-06-10T01:30:24.562Z,16.22
2019-06-10T01:31:23.899Z,16.16
2019-06-10T01:32:21.659Z,15.97
2019-06-10T01:33:21.276Z,16.06
2019-06-10T01:34:21.748Z,16.01
2019-06-10T01:35:21.105Z,15.88
2019-06-10T01:36:21.199Z,15.97
2019-06-10T01:37:21.784Z,15.94
2019-06-10T01:38:21.272Z,16.06
2019-06-10T01:39:22.685Z,16.06
2019-06-10T01:40:21.303Z,16.20
2019-06-10T01:41:21.610Z,16.23
2019-06-10T01:42:21.744Z,16.25
2019-06-10T01:43:21.758Z,16.37
2019-06-10T01:44:22.281Z,16.37
2019-06-10T01:45:22.060Z,16.44
2019-06-10T01:46:22.207Z,16.48
2019-06-10T01:47:22.356Z,16.52
2019-06-10T01:48:22.514Z,16.49
2019-06-10T01:49:22.656Z,16.49
2019-06-10T01:50:22.805Z,16.40
2019-06-10T01:51:22.957Z,16.41
2019-06-10T01:52:23.107Z,16.26
2019-06-10T01:53:23.254Z,16.30
2019-06-10T01:54:23.407Z,16.38
2019-06-10T01:55:23.558Z,16.23
2019-06-10T01:56:23.707Z,16.34
2019-06-10T01:57:23.863Z,16.33
2019-06-10T01:58:24.008Z,16.27
2019-06-10T01:59:24.175Z,16.20
2019-06-10T02:00:26.072Z,16.07
2019-06-10T02:01:24.461Z,15.93
2019-06-10T02:02:24.615Z,15.94
2019-06-10T02:03:24.763Z,15.96
2019-06-10T02:04:24.916Z,16.09
2019-06-10T02:05:25.065Z,16.03
2019-06-10T02:06:25.885Z,16.18
2019-06-10T02:07:25.360Z,16.06
2019-06-10T02:08:25.514Z,16.09
2019-06-10T02:09:25.691Z,16.15
2019-06-10T02:10:25.814Z,16.23
2019-06-10T02:11:25.966Z,16.14
2019-06-10T02:12:26.118Z,15.99
2019-06-10T02:13:26.265Z,15.96
2019-06-10T02:14:26.418Z,15.94
2019-06-10T02:15:26.573Z,15.93
2019-06-10T02:16:26.718Z,16.01
2019-06-10T02:17:26.868Z,15.99
2019-06-10T02:18:27.019Z,15.89
2019-06-10T02:19:27.167Z,15.94
2019-06-10T02:20:27.318Z,15.94
2019-06-10T02:21:27.468Z,15.93
2019-06-10T02:22:27.620Z,15.94
2019-06-10T02:23:27.770Z,15.99
2019-06-10T02:24:27.920Z,16.04
2019-06-10T02:25:30.182Z,15.94
2019-06-10T02:26:28.219Z,16.12
2019-06-10T02:27:28.372Z,16.14
2019-06-10T02:28:28.522Z,16.12
2019-06-10T02:29:30.634Z,16.18
2019-06-10T02:30:44.527Z,16.06
2019-06-10T02:31:36.561Z,16.18
2019-06-10T02:32:36.905Z,16.20
2019-06-10T02:33:32.435Z,16.18
2019-06-10T02:34:33.060Z,16.26
2019-06-10T02:35:40.087Z,16.33
2019-06-10T02:36:35.345Z,16.30
2019-06-10T02:37:32.625Z,16.14
2019-06-10T02:38:37.931Z,16.27
2019-06-10T02:39:37.539Z,16.23
2019-06-10T02:40:33.100Z,16.30
2019-06-10T02:41:35.358Z,16.23
2019-06-10T02:42:34.827Z,16.26
2019-06-10T02:43:33.302Z,16.26
2019-06-10T02:44:34.354Z,16.15
2019-06-10T02:45:36.953Z,16.03
2019-06-10T02:46:35.736Z,15.96
2019-06-10T02:47:37.086Z,16.04
2019-06-10T02:48:34.837Z,16.00
2019-06-10T02:49:51.491Z,15.97
2019-06-10T02:50:35.787Z,15.78
2019-06-10T02:51:35.434Z,15.84
2019-06-10T02:52:37.183Z,15.85
2019-06-10T02:53:36.191Z,15.70
2019-06-10T02:54:35.822Z,15.78
2019-06-10T02:55:35.136Z,15.89
2019-06-10T02:56:36.297Z,15.85
2019-06-10T02:57:38.868Z,15.79
2019-06-10T02:58:38.334Z,15.81
2019-06-10T02:59:36.417Z,15.79
2019-06-10T03:00:39.785Z,15.82
2019-06-10T03:01:37.860Z,15.82
2019-06-10T03:02:36.402Z,15.88
2019-06-10T03:03:42.527Z,15.93
2019-06-10T03:04:37.586Z,15.92
2019-06-10T03:05:40.644Z,16.01
2019-06-10T03:06:39.381Z,15.97
2019-06-10T03:07:35.573Z,15.99
2019-06-10T03:08:36.123Z,16.07
2019-06-10T03:09:35.763Z,16.07
2019-06-10T03:10:37.079Z,15.94
2019-06-10T03:11:37.361Z,15.85
2019-06-10T03:12:35.149Z,15.82
2019-06-10T03:13:35.302Z,15.89
2019-06-10T03:14:35.450Z,15.89
2019-06-10T03:15:35.639Z,15.86
2019-06-10T03:16:35.758Z,15.88
2019-06-10T03:17:35.932Z,15.88
2019-06-10T03:18:36.051Z,15.85
2019-06-10T03:19:46.999Z,15.97
2019-06-10T03:20:36.353Z,15.97
2019-06-10T03:21:36.503Z,15.94
2019-06-10T03:22:36.651Z,15.86
2019-06-10T03:23:36.802Z,15.72
2019-06-10T03:24:36.952Z,15.72
2019-06-10T03:25:37.101Z,15.66
2019-06-10T03:26:37.251Z,15.64
2019-06-10T03:27:37.401Z,15.70
2019-06-10T03:28:37.551Z,15.63
2019-06-10T03:29:37.701Z,15.54
2019-06-10T03:30:49.790Z,15.60
2019-06-10T03:31:43.124Z,15.56
2019-06-10T03:32:42.535Z,15.57
2019-06-10T03:33:41.859Z,15.60
2019-06-10T03:34:46.012Z,15.57
2019-06-10T03:35:38.605Z,15.57
2019-06-10T03:36:38.755Z,15.56
2019-06-10T03:37:38.910Z,15.54
2019-06-10T03:38:39.107Z,15.48
2019-06-10T03:39:39.208Z,15.54
2019-06-10T03:40:39.355Z,15.54
2019-06-10T03:41:39.506Z,15.48
2019-06-10T03:42:39.666Z,15.51
2019-06-10T03:43:39.807Z,15.56
2019-06-10T03:44:39.958Z,15.46
2019-06-10T03:45:42.434Z,15.51
2019-06-10T03:46:40.264Z,15.64
2019-06-10T03:47:42.492Z,15.61
2019-06-10T03:48:43.080Z,15.72
2019-06-10T03:49:51.725Z,15.72
2019-06-10T03:50:43.000Z,15.82
2019-06-10T03:51:42.796Z,15.79
2019-06-10T03:52:43.156Z,15.74
2019-06-10T03:53:42.696Z,15.66
2019-06-10T03:54:43.299Z,15.76
2019-06-10T03:55:42.359Z,15.78
2019-06-10T03:56:43.056Z,15.88
2019-06-10T03:57:42.438Z,15.99
2019-06-10T03:58:43.023Z,16.04
2019-06-10T03:59:42.294Z,16.12
2019-06-10T04:00:43.019Z,16.07
2019-06-10T04:01:42.823Z,16.15
2019-06-10T04:02:43.172Z,16.15
2019-06-10T04:03:42.975Z,16.09
2019-06-10T04:04:43.066Z,16.15
2019-06-10T04:05:43.119Z,16.12
2019-06-10T04:06:44.305Z,16.12
2019-06-10T04:07:43.430Z,16.23
2019-06-10T04:08:43.576Z,16.33
2019-06-10T04:09:43.725Z,16.25
2019-06-10T04:10:43.877Z,16.16
2019-06-10T04:11:44.028Z,16.25
2019-06-10T04:12:44.176Z,16.14
2019-06-10T04:13:44.328Z,16.11
2019-06-10T04:14:44.484Z,16.20
2019-06-10T04:15:44.631Z,16.33
2019-06-10T04:16:44.782Z,16.42
2019-06-10T04:17:44.932Z,16.49
2019-06-10T04:18:45.083Z,16.58
2019-06-10T04:19:45.232Z,16.50
2019-06-10T04:20:45.384Z,16.52
2019-06-10T04:21:45.535Z,16.56
2019-06-10T04:22:45.687Z,16.59
2019-06-10T04:23:45.837Z,16.56
2019-06-10T04:24:45.989Z,16.56
2019-06-10T04:25:46.139Z,16.50
2019-06-10T04:26:46.293Z,16.40
2019-06-10T04:27:46.440Z,16.49
2019-06-10T04:28:46.598Z,16.62
2019-06-10T04:29:46.741Z,16.52
2019-06-10T04:30:46.895Z,16.55
2019-06-10T04:31:47.044Z,16.45
2019-06-10T04:32:47.195Z,16.48
2019-06-10T04:33:47.344Z,16.50
2019-06-10T04:34:47.554Z,16.35
2019-06-10T04:35:47.675Z,16.26
2019-06-10T04:36:47.825Z,16.31
2019-06-10T04:37:47.977Z,16.33
2019-06-10T04:38:48.127Z,16.40
2019-06-10T04:39:48.277Z,16.34
2019-06-10T04:40:48.428Z,16.56
2019-06-10T04:41:48.580Z,16.62
2019-06-10T04:42:48.732Z,16.62
2019-06-10T04:43:48.883Z,16.55
2019-06-10T04:44:49.034Z,16.53
2019-06-10T04:45:49.186Z,16.34
2019-06-10T04:46:49.336Z,16.45
2019-06-10T04:47:49.489Z,16.44
2019-06-10T04:48:49.639Z,16.48
2019-06-10T04:49:52.122Z,16.34
2019-06-10T04:50:49.942Z,16.45
2019-06-10T04:51:52.223Z,16.48
2019-06-10T04:52:50.242Z,16.50
2019-06-10T04:53:52.505Z,16.49
2019-06-10T04:54:52.627Z,16.68
2019-06-10T04:55:52.246Z,16.67
2019-06-10T04:56:52.838Z,16.88
2019-06-10T04:57:52.131Z,16.90
2019-06-10T04:58:52.530Z,16.98
2019-06-10T04:59:52.967Z,17.07
2019-06-10T05:00:52.358Z,17.14
2019-06-10T05:01:53.054Z,17.17
2019-06-10T05:02:52.264Z,17.08
2019-06-10T05:03:52.664Z,16.96
2019-06-10T05:04:53.218Z,16.88
2019-06-10T05:05:52.704Z,16.81
2019-06-10T05:06:52.748Z,16.74
2019-06-10T05:07:52.507Z,16.67
2019-06-10T05:08:53.808Z,16.68
2019-06-10T05:09:52.808Z,16.77
2019-06-10T05:10:53.029Z,16.85
2019-06-10T05:11:53.112Z,16.98
2019-06-10T05:12:53.261Z,17.17
2019-06-10T05:13:53.532Z,17.15
2019-06-10T05:14:53.561Z,17.32
2019-06-10T05:15:53.711Z,17.33
2019-06-10T05:16:54.485Z,17.53
2019-06-10T05:17:54.016Z,17.43
2019-06-10T05:18:54.940Z,17.44
2019-06-10T05:19:54.321Z,17.47
2019-06-10T05:20:58.396Z,17.50
2019-06-10T05:21:54.625Z,17.46
2019-06-10T05:22:54.772Z,17.63
2019-06-10T05:23:54.926Z,17.53
2019-06-10T05:24:55.076Z,17.64
2019-06-10T05:25:56.285Z,17.71
2019-06-10T05:26:55.381Z,17.55
2019-06-10T05:27:55.533Z,17.57
2019-06-10T05:28:55.687Z,17.44
2019-06-10T05:29:55.836Z,17.29
2019-06-10T05:30:55.986Z,17.20
2019-06-10T05:31:56.138Z,17.22
2019-06-10T05:32:56.289Z,17.17
2019-06-10T05:33:56.443Z,17.15
2019-06-10T05:34:56.592Z,17.18
2019-06-10T05:35:56.754Z,17.26
2019-06-10T05:36:56.898Z,17.13
2019-06-10T05:37:57.050Z,17.26
2019-06-10T05:38:57.201Z,17.23
2019-06-10T05:39:57.357Z,17.38
2019-06-10T05:40:57.503Z,17.32
2019-06-10T05:41:57.655Z,17.20
2019-06-10T05:42:57.806Z,17.20
2019-06-10T05:43:57.956Z,17.13
2019-06-10T05:44:58.108Z,17.13
2019-06-10T05:45:58.261Z,17.15
2019-06-10T05:46:58.412Z,17.33
2019-06-10T05:47:58.566Z,17.30
2019-06-10T05:48:58.719Z,17.33
2019-06-10T05:49:58.870Z,17.25
2019-06-10T05:51:02.882Z,17.22
2019-06-10T05:51:59.174Z,17.08
2019-06-10T05:52:59.326Z,17.15
2019-06-10T05:54:02.036Z,17.30
2019-06-10T05:54:59.631Z,17.28
2019-06-10T05:56:02.043Z,17.36
2019-06-10T05:56:59.932Z,17.38
2019-06-10T05:58:02.434Z,17.59
2019-06-10T05:59:02.251Z,17.69
2019-06-10T06:00:02.991Z,17.79
2019-06-10T06:01:02.785Z,17.73
2019-06-10T06:02:02.277Z,17.85
2019-06-10T06:03:02.780Z,17.94
2019-06-10T06:04:03.159Z,18.06
2019-06-10T06:05:02.578Z,18.18
2019-06-10T06:06:03.202Z,18.24
2019-06-10T06:07:02.389Z,18.40
2019-06-10T06:08:08.201Z,18.47
2019-06-10T06:09:02.231Z,18.46
2019-06-10T06:10:02.490Z,18.55
2019-06-10T06:11:03.252Z,18.62
2019-06-10T06:12:02.610Z,18.72
2019-06-10T06:13:03.084Z,18.68
2019-06-10T06:14:02.820Z,18.65
2019-06-10T06:15:02.679Z,18.83
2019-06-10T06:16:03.442Z,18.95
2019-06-10T06:17:02.978Z,18.91
2019-06-10T06:18:09.432Z,19.05
2019-06-10T06:19:03.401Z,19.11
2019-06-10T06:20:03.432Z,19.33
2019-06-10T06:21:20.583Z,19.28
2019-06-10T06:22:03.738Z,19.28
2019-06-10T06:23:03.887Z,19.33
2019-06-10T06:24:04.246Z,19.43
2019-06-10T06:25:04.196Z,19.58
2019-06-10T06:26:04.352Z,19.63
2019-06-10T06:27:04.501Z,19.65
2019-06-10T06:28:04.655Z,19.63
2019-06-10T06:29:04.807Z,19.69
2019-06-10T06:30:11.109Z,19.66
2019-06-10T06:31:05.110Z,19.60
2019-06-10T06:32:05.265Z,19.73
2019-06-10T06:33:05.420Z,19.78
2019-06-10T06:34:05.569Z,19.79
2019-06-10T06:35:05.720Z,19.84
2019-06-10T06:36:05.876Z,20.02
2019-06-10T06:37:06.028Z,20.10
2019-06-10T06:38:06.181Z,20.13
2019-06-10T06:39:06.333Z,20.08
2019-06-10T06:40:06.487Z,20.25
2019-06-10T06:41:06.640Z,20.25
2019-06-10T06:42:06.831Z,20.39
2019-06-10T06:43:06.954Z,20.53
2019-06-10T06:44:07.109Z,20.31
2019-06-10T06:45:07.261Z,20.43
2019-06-10T06:46:07.417Z,20.49
2019-06-10T06:47:07.568Z,20.58
2019-06-10T06:48:07.721Z,20.79
2019-06-10T06:49:07.875Z,20.87
2019-06-10T06:50:08.026Z,21.02
2019-06-10T06:51:08.791Z,21.04
2019-06-10T06:52:08.335Z,20.96
2019-06-10T06:53:21.330Z,20.79
2019-06-10T06:54:08.645Z,20.93
2019-06-10T06:55:08.799Z,20.98
2019-06-10T06:56:08.951Z,20.83
2019-06-10T06:57:09.109Z,20.76
2019-06-10T06:58:09.263Z,20.72
2019-06-10T06:59:09.414Z,20.58
2019-06-10T07:00:33.814Z,20.81
2019-06-10T07:01:10.978Z,20.62
2019-06-10T07:02:12.159Z,20.56
2019-06-10T07:03:12.452Z,20.56
2019-06-10T07:04:10.188Z,20.68
2019-06-10T07:05:12.403Z,20.72
2019-06-10T07:06:13.028Z,20.84
2019-06-10T07:07:13.064Z,20.86
2019-06-10T07:08:12.932Z,20.91
2019-06-10T07:09:13.239Z,20.79
2019-06-10T07:10:12.242Z,20.81
2019-06-10T07:11:13.244Z,20.80
2019-06-10T07:12:13.030Z,20.90
2019-06-10T07:13:12.896Z,20.84
2019-06-10T07:14:13.344Z,21.04
2019-06-10T07:15:12.206Z,21.01
2019-06-10T07:16:13.159Z,21.08
2019-06-10T07:17:12.678Z,21.09
2019-06-10T07:18:13.053Z,21.05
2019-06-10T07:19:13.147Z,20.96
2019-06-10T07:20:12.763Z,20.90
2019-06-10T07:21:13.263Z,20.93
2019-06-10T07:22:16.026Z,20.89
2019-06-10T07:23:13.116Z,20.91
2019-06-10T07:24:13.271Z,20.79
2019-06-10T07:25:13.424Z,20.89
2019-06-10T07:26:13.578Z,21.17
2019-06-10T07:27:13.733Z,21.38
2019-06-10T07:28:13.891Z,21.14
2019-06-10T07:29:14.039Z,21.21
2019-06-10T07:30:15.201Z,21.36
2019-06-10T07:31:23.656Z,21.51
2019-06-10T07:32:14.500Z,21.50
2019-06-10T07:33:14.649Z,21.50
2019-06-10T07:34:14.799Z,21.51
2019-06-10T07:35:14.956Z,21.53
2019-06-10T07:36:15.108Z,21.66
2019-06-10T07:37:15.264Z,21.60
2019-06-10T07:38:15.419Z,21.76
2019-06-10T07:39:15.574Z,21.83
2019-06-10T07:40:15.731Z,21.83
2019-06-10T07:41:15.887Z,21.81
2019-06-10T07:42:16.042Z,22.01
2019-06-10T07:43:16.193Z,21.83
2019-06-10T07:44:16.349Z,21.81
2019-06-10T07:45:16.527Z,21.71
2019-06-10T07:46:16.657Z,21.63
2019-06-10T07:47:16.813Z,21.41
2019-06-10T07:48:16.969Z,21.50
2019-06-10T07:49:17.124Z,21.56
2019-06-10T07:50:17.279Z,21.39
2019-06-10T07:51:17.446Z,21.20
2019-06-10T07:52:19.915Z,21.20
2019-06-10T07:53:17.743Z,21.14
2019-06-10T07:54:17.892Z,21.04
2019-06-10T07:55:18.048Z,20.93
2019-06-10T07:56:18.199Z,21.01
2019-06-10T07:57:18.354Z,20.98
2019-06-10T07:58:18.508Z,21.14
2019-06-10T07:59:18.680Z,21.13
2019-06-10T08:00:18.830Z,21.17
2019-06-10T08:01:18.984Z,21.24
2019-06-10T08:02:19.133Z,21.20
2019-06-10T08:03:19.286Z,21.30
2019-06-10T08:04:19.440Z,21.24
2019-06-10T08:05:19.595Z,21.32
2019-06-10T08:06:19.749Z,21.53
2019-06-10T08:07:22.396Z,21.50
2019-06-10T08:08:20.060Z,21.46
2019-06-10T08:09:22.628Z,21.67
2019-06-10T08:10:20.369Z,22.09
2019-06-10T08:11:22.668Z,22.34
2019-06-10T08:12:23.106Z,22.32
2019-06-10T08:13:22.656Z,22.50
2019-06-10T08:14:22.279Z,22.47
2019-06-10T08:15:22.983Z,22.22
2019-06-10T08:16:23.656Z,22.38
2019-06-10T08:17:22.453Z,22.37
2019-06-10T08:18:22.555Z,22.17
2019-06-10T08:19:31.656Z,22.12
2019-06-10T08:20:22.303Z,22.23
2019-06-10T08:21:22.885Z,22.46
2019-06-10T08:22:31.146Z,22.56
2019-06-10T08:23:23.649Z,22.47
2019-06-10T08:24:22.553Z,22.25
2019-06-10T08:25:22.985Z,22.32
2019-06-10T08:26:23.264Z,22.32
2019-06-10T08:27:23.013Z,22.31
2019-06-10T08:28:23.313Z,22.43
2019-06-10T08:29:23.554Z,22.25
2019-06-10T08:30:27.465Z,22.23
2019-06-10T08:31:23.640Z,22.25
2019-06-10T08:32:24.502Z,22.47
2019-06-10T08:33:23.953Z,22.38
2019-06-10T08:34:24.106Z,22.37
2019-06-10T08:35:38.503Z,22.31
2019-06-10T08:36:24.419Z,22.27
2019-06-10T08:37:24.583Z,22.25
2019-06-10T08:38:24.729Z,22.12
2019-06-10T08:39:24.891Z,22.23
2019-06-10T08:40:25.043Z,22.17
2019-06-10T08:41:25.199Z,22.31
2019-06-10T08:42:25.356Z,22.37
2019-06-10T08:43:25.517Z,22.52
2019-06-10T08:44:25.668Z,22.32
2019-06-10T08:45:25.823Z,22.38
2019-06-10T08:46:25.983Z,22.35
2019-06-10T08:47:26.135Z,22.50
2019-06-10T08:48:26.289Z,22.57
2019-06-10T08:49:26.445Z,22.78
2019-06-10T08:50:26.595Z,22.89
2019-06-10T08:51:26.751Z,23.04
2019-06-10T08:52:26.921Z,23.20
2019-06-10T08:53:27.079Z,23.45
2019-06-10T08:54:27.239Z,23.23
2019-06-10T08:55:27.391Z,22.80
2019-06-10T08:56:27.550Z,22.62
2019-06-10T08:57:27.703Z,22.67
2019-06-10T08:58:27.857Z,22.59
2019-06-10T08:59:28.017Z,22.71
2019-06-10T09:00:28.174Z,22.77
2019-06-10T09:01:28.326Z,22.78
2019-06-10T09:02:28.481Z,22.60
2019-06-10T09:03:28.643Z,22.77
2019-06-10T09:04:29.550Z,22.62
2019-06-10T09:05:28.956Z,22.78
2019-06-10T09:06:29.111Z,22.96
2019-06-10T09:07:29.268Z,23.05
2019-06-10T09:08:29.422Z,23.04
2019-06-10T09:09:29.579Z,23.12
2019-06-10T09:10:29.743Z,23.31
2019-06-10T09:11:29.897Z,23.24
2019-06-10T09:12:35.822Z,23.43
2019-06-10T09:13:31.261Z,23.26
2019-06-10T09:14:32.590Z,23.17
2019-06-10T09:15:32.507Z,23.15
2019-06-10T09:16:32.434Z,23.38
2019-06-10T09:17:33.804Z,23.53
2019-06-10T09:18:33.440Z,23.71
2019-06-10T09:19:33.218Z,23.85
2019-06-10T09:20:33.127Z,24.00
2019-06-10T09:21:32.991Z,23.80
2019-06-10T09:22:32.717Z,23.82
2019-06-10T09:23:33.116Z,23.75
2019-06-10T09:24:32.767Z,23.58
2019-06-10T09:25:33.353Z,23.45
2019-06-10T09:26:33.695Z,23.19
2019-06-10T09:27:32.857Z,23.20
2019-06-10T09:28:32.952Z,23.17
2019-06-10T09:29:33.003Z,23.07
2019-06-10T09:30:33.397Z,23.09
2019-06-10T09:31:33.254Z,23.05
2019-06-10T09:32:33.205Z,23.07
2019-06-10T09:33:33.395Z,23.39
2019-06-10T09:34:33.518Z,23.72
2019-06-10T09:35:33.678Z,23.72
2019-06-10T09:36:33.833Z,23.79
2019-06-10T09:37:33.990Z,23.64
2019-06-10T09:38:34.667Z,23.82
2019-06-10T09:39:34.310Z,23.85
2019-06-10T09:40:34.463Z,24.01
2019-06-10T09:41:40.121Z,23.80
2019-06-10T09:42:34.777Z,23.65
2019-06-10T09:43:34.933Z,23.79
2019-06-10T09:44:35.093Z,24.00
2019-06-10T09:45:35.248Z,24.08
2019-06-10T09:46:35.406Z,24.45
2019-06-10T09:47:35.564Z,24.45
2019-06-10T09:48:35.722Z,24.49
2019-06-10T09:49:35.888Z,24.49
2019-06-10T09:50:36.035Z,24.68
2019-06-10T09:51:36.191Z,24.71
2019-06-10T09:52:36.347Z,24.83
2019-06-10T09:53:42.794Z,24.76
2019-06-10T09:54:36.663Z,24.97
2019-06-10T09:55:36.823Z,24.61
2019-06-10T09:56:36.980Z,24.56
2019-06-10T09:57:37.137Z,24.37
2019-06-10T09:58:37.296Z,24.34
2019-06-10T09:59:37.454Z,24.35
2019-06-10T10:00:37.612Z,24.56
2019-06-10T10:01:37.769Z,25.09
2019-06-10T10:02:37.926Z,25.46
2019-06-10T10:03:38.082Z,25.54
2019-06-10T10:04:38.274Z,25.93
2019-06-10T10:05:38.397Z,25.99
2019-06-10T10:06:38.553Z,26.05
2019-06-10T10:07:38.711Z,26.25
2019-06-10T10:08:38.868Z,26.02
2019-06-10T10:09:39.027Z,25.74
2019-06-10T10:10:39.187Z,25.77
2019-06-10T10:11:39.361Z,25.82
2019-06-10T10:12:39.502Z,26.04
2019-06-10T10:13:42.461Z,25.87
2019-06-10T10:14:39.823Z,25.16
2019-06-10T10:15:39.980Z,24.92
2019-06-10T10:16:40.846Z,24.69
2019-06-10T10:17:44.489Z,24.45
2019-06-10T10:18:42.520Z,24.24
2019-06-10T10:19:43.304Z,24.16
2019-06-10T10:20:44.600Z,24.17
2019-06-10T10:21:45.650Z,24.53
2019-06-10T10:22:43.786Z,24.85
2019-06-10T10:23:52.494Z,25.01
2019-06-10T10:24:43.865Z,24.98
2019-06-10T10:25:44.877Z,25.05
2019-06-10T10:26:43.341Z,24.88
2019-06-10T10:27:45.563Z,24.98
2019-06-10T10:28:42.794Z,24.92
2019-06-10T10:29:43.680Z,25.02
2019-06-10T10:30:44.970Z,24.71
2019-06-10T10:31:44.991Z,24.39
2019-06-10T10:32:46.876Z,24.37
2019-06-10T10:33:43.107Z,24.22
2019-06-10T10:34:45.040Z,24.57
2019-06-10T10:35:45.766Z,24.60
2019-06-10T10:36:45.362Z,24.75
2019-06-10T10:37:44.571Z,24.80
2019-06-10T10:38:44.738Z,25.07
2019-06-10T10:39:44.682Z,25.00
2019-06-10T10:40:47.087Z,24.76
2019-06-10T10:41:45.193Z,25.02
2019-06-10T10:42:48.605Z,25.39
2019-06-10T10:43:46.825Z,25.67
2019-06-10T10:44:48.108Z,25.87
2019-06-10T10:45:47.468Z,25.30
2019-06-10T10:46:45.607Z,25.12
2019-06-10T10:47:45.051Z,25.00
2019-06-10T10:48:45.206Z,25.25
2019-06-10T10:49:45.365Z,25.52
2019-06-10T10:50:45.720Z,25.75
2019-06-10T10:51:46.923Z,25.79
2019-06-10T10:52:46.773Z,25.59
2019-06-10T10:53:50.570Z,25.50
2019-06-10T10:54:46.754Z,25.27
2019-06-10T10:55:47.196Z,25.43
2019-06-10T10:56:49.162Z,25.35
2019-06-10T10:57:47.263Z,25.44
2019-06-10T10:58:47.641Z,25.69
2019-06-10T10:59:47.799Z,25.94
2019-06-10T11:00:49.769Z,26.20
2019-06-10T11:01:47.584Z,25.67
2019-06-10T11:02:50.623Z,25.53
2019-06-10T11:03:49.555Z,25.84
2019-06-10T11:04:48.011Z,25.86
2019-06-10T11:05:49.912Z,26.17
2019-06-10T11:06:48.043Z,26.47
2019-06-10T11:07:48.203Z,26.52
2019-06-10T11:08:48.419Z,26.18
2019-06-10T11:09:48.952Z,26.22
2019-06-10T11:10:49.907Z,26.28
2019-06-10T11:11:48.948Z,26.49
2019-06-10T11:12:49.088Z,26.47
2019-06-10T11:13:49.388Z,26.69
2019-06-10T11:14:49.354Z,26.49
2019-06-10T11:15:49.486Z,26.09
2019-06-10T11:16:49.642Z,26.06
2019-06-10T11:17:49.803Z,25.87
2019-06-10T11:18:52.000Z,25.89
2019-06-10T11:19:53.727Z,25.94
2019-06-10T11:20:51.394Z,26.01
2019-06-10T11:21:51.507Z,25.89
2019-06-10T11:22:51.590Z,26.22
2019-06-10T11:23:54.240Z,26.25
2019-06-10T11:24:53.593Z,26.58
2019-06-10T11:25:53.698Z,26.72
2019-06-10T11:26:55.172Z,26.84
2019-06-10T11:27:53.062Z,26.81
2019-06-10T11:28:54.375Z,26.31
2019-06-10T11:29:53.563Z,26.55
2019-06-10T11:30:56.358Z,26.89
2019-06-10T11:31:55.054Z,26.36
2019-06-10T11:32:55.662Z,26.36
2019-06-10T11:33:56.993Z,26.21
2019-06-10T11:34:56.512Z,26.22
2019-06-10T11:35:55.132Z,26.50
2019-06-10T11:36:55.050Z,26.67
2019-06-10T11:37:54.055Z,26.21
2019-06-10T11:38:55.573Z,26.46
2019-06-10T11:39:54.963Z,26.74
2019-06-10T11:40:57.728Z,27.06
2019-06-10T11:41:56.034Z,27.24
2019-06-10T11:42:56.514Z,27.09
2019-06-10T11:43:57.761Z,27.09
2019-06-10T11:44:57.409Z,26.96
2019-06-10T11:45:59.850Z,26.99
2019-06-10T11:46:57.515Z,26.72
2019-06-10T11:47:56.635Z,26.65
2019-06-10T11:48:57.247Z,26.29
2019-06-10T11:49:55.419Z,26.77
2019-06-10T11:50:58.431Z,26.55
2019-06-10T11:51:56.494Z,26.47
2019-06-10T11:53:00.243Z,26.74
2019-06-10T11:53:57.180Z,26.84
2019-06-10T11:55:08.869Z,26.37
2019-06-10T11:55:56.438Z,26.11
2019-06-10T11:56:57.795Z,26.24
2019-06-10T11:57:57.705Z,26.21
2019-06-10T11:58:58.606Z,26.29
2019-06-10T11:59:57.787Z,26.06
2019-06-10T12:00:58.789Z,26.18
2019-06-10T12:01:59.862Z,25.93
2019-06-10T12:02:58.712Z,25.74
2019-06-10T12:03:58.887Z,25.57
2019-06-10T12:04:59.326Z,25.84
2019-06-10T12:06:00.758Z,25.86
2019-06-10T12:06:58.953Z,26.06
2019-06-10T12:08:01.244Z,26.17
2019-06-10T12:09:00.865Z,26.11
2019-06-10T12:10:00.786Z,25.89
2019-06-10T12:11:01.812Z,25.87
2019-06-10T12:12:01.922Z,25.74
2019-06-10T12:13:03.054Z,25.71
2019-06-10T12:14:03.884Z,25.72
2019-06-10T12:15:01.257Z,25.72
2019-06-10T12:17:11.219Z,25.87
2019-06-10T12:17:22.293Z,26.05
2019-06-10T12:18:05.978Z,26.05
2019-06-10T12:19:00.852Z,26.18
2019-06-10T12:20:02.989Z,25.98
2019-06-10T12:21:03.565Z,25.99
2019-06-10T12:22:06.365Z,26.08
2019-06-10T12:23:03.791Z,26.20
2019-06-10T12:24:02.394Z,26.32
2019-06-10T12:25:25.006Z,26.52
2019-06-10T12:26:01.642Z,26.67
2019-06-10T12:27:04.473Z,26.58
2019-06-10T12:28:04.498Z,26.65
2019-06-10T12:29:05.300Z,26.40
2019-06-10T12:30:04.841Z,26.22
2019-06-10T12:31:06.425Z,26.22
2019-06-10T12:32:06.984Z,26.04
2019-06-10T12:33:05.355Z,26.09
2019-06-10T12:34:03.260Z,25.97
2019-06-10T12:35:05.206Z,26.27
2019-06-10T12:36:06.689Z,26.25
2019-06-10T12:37:10.882Z,25.87
2019-06-10T12:38:06.132Z,26.15
2019-06-10T12:39:10.225Z,26.47
2019-06-10T12:40:05.657Z,26.57
2019-06-10T12:41:07.893Z,26.58
2019-06-10T12:42:06.083Z,26.89
2019-06-10T12:43:06.780Z,26.84
2019-06-10T12:44:04.640Z,26.95
2019-06-10T12:45:07.377Z,26.73
2019-06-10T12:46:03.909Z,26.65
2019-06-10T12:47:07.619Z,26.87
2019-06-10T12:48:06.607Z,26.92
2019-06-10T12:49:08.511Z,26.61
2019-06-10T12:50:05.533Z,26.46
2019-06-10T12:51:08.116Z,26.65
2019-06-10T12:52:07.439Z,26.58
2019-06-10T12:53:07.188Z,26.64
2019-06-10T12:54:06.455Z,26.36